Terminal Aerodrome Forecast
Issued by NWS

Home | Current Version | Previous Version | Text Only | Print | Product List | Glossary On
Versions: 1 2 3 4 5 6 7 8 9 10 11 12 13 14 15
000
FTUS46 KPDT 202300
TAFDLS
TAF
KDLS 202333Z 2100/2124 VRB05KT P6SM SCT150 BKN200
     FM211100 VRB03KT P6SM BKN130 OVC150
     FM211400 VRB06KT P6SM SCT100 BKN120
     FM211800 31009KT P6SM SCT110 BKN130
     FM212100 32012KT P6SM SCT080 BKN100=

USA.gov is the U.S. government's official web portal to all federal, state and local government web resources and services.